SBI150 UIII-UNKL
Flight info
| Callsign | SBI150 |
|---|---|
| Flight time | 1h 29m |
| Altitude | 34000 |
| Route | BOGRA4D BOGRA A815 TUTEK A91 SUKOR W176 TISBU A311 LALOM LALOM2S |
| Aircraft | B738/M-SDE2E3FGHIRWXY/LB1 |
Departure
| Time | 2026-05-08 14:51 |
|---|---|
| Airport | Irkutsk International Airport (UIII) |
Arrival
| Time | 2026-05-08 16:20 |
|---|---|
| Airport | Krasnoyarsk International Airport (UNKL) |
| Time | Latitude | Longitude | Altitude | Speed | Heading |
|---|---|---|---|---|---|
| 2026-05-08 14:28 | 52.27223 | 104.35523 | 1587 ft | 0 kts | 263° |
| 2026-05-08 14:40 | 52.27216 | 104.35481 | 1587 ft | 11 kts | 230° |
| 2026-05-08 14:40 | 52.27149 | 104.35564 | 1591 ft | 20 kts | 84° |
| 2026-05-08 14:40 | 52.27155 | 104.35792 | 1592 ft | 18 kts | 75° |
| 2026-05-08 14:40 | 52.27182 | 104.35985 | 1595 ft | 15 kts | 83° |
| 2026-05-08 14:41 | 52.27194 | 104.36159 | 1595 ft | 15 kts | 84° |
| 2026-05-08 14:41 | 52.27174 | 104.36313 | 1596 ft | 12 kts | 110° |
| 2026-05-08 14:41 | 52.27155 | 104.36397 | 1597 ft | 0 kts | 110° |
| 2026-05-08 14:43 | 52.27154 | 104.36399 | 1597 ft | 2 kts | 110° |
| 2026-05-08 14:43 | 52.27124 | 104.36533 | 1599 ft | 21 kts | 110° |
| 2026-05-08 14:43 | 52.27072 | 104.36763 | 1604 ft | 16 kts | 110° |
| 2026-05-08 14:43 | 52.27037 | 104.36921 | 1606 ft | 12 kts | 110° |
| 2026-05-08 14:44 | 52.27013 | 104.37024 | 1607 ft | 8 kts | 110° |
| 2026-05-08 14:44 | 52.26993 | 104.37113 | 1608 ft | 10 kts | 108° |
| 2026-05-08 14:44 | 52.27000 | 104.37296 | 1606 ft | 22 kts | 107° |
| 2026-05-08 14:44 | 52.26918 | 104.37589 | 1611 ft | 34 kts | 114° |
| 2026-05-08 14:45 | 52.26810 | 104.37987 | 1617 ft | 38 kts | 114° |
| 2026-05-08 14:45 | 52.26729 | 104.38297 | 1625 ft | 22 kts | 112° |
| 2026-05-08 14:45 | 52.26670 | 104.38519 | 1629 ft | 19 kts | 113° |
| 2026-05-08 14:45 | 52.26622 | 104.38699 | 1634 ft | 15 kts | 113° |
| 2026-05-08 14:46 | 52.26580 | 104.38860 | 1636 ft | 17 kts | 112° |
| 2026-05-08 14:46 | 52.26517 | 104.39099 | 1643 ft | 28 kts | 112° |
| 2026-05-08 14:46 | 52.26422 | 104.39455 | 1648 ft | 38 kts | 114° |
| 2026-05-08 14:46 | 52.26309 | 104.39883 | 1648 ft | 45 kts | 112° |
| 2026-05-08 14:47 | 52.26176 | 104.40372 | 1646 ft | 46 kts | 114° |
| 2026-05-08 14:47 | 52.26059 | 104.40818 | 1655 ft | 36 kts | 108° |
| 2026-05-08 14:47 | 52.26001 | 104.41050 | 1660 ft | 7 kts | 108° |
| 2026-05-08 14:47 | 52.25996 | 104.41084 | 1662 ft | 0 kts | 98° |
| 2026-05-08 14:48 | 52.25996 | 104.41081 | 1662 ft | 1 kts | 99° |
| 2026-05-08 14:48 | 52.26010 | 104.41160 | 1665 ft | 10 kts | 48° |
| 2026-05-08 14:48 | 52.26071 | 104.41215 | 1664 ft | 9 kts | 22° |
| 2026-05-08 14:48 | 52.26094 | 104.41230 | 1664 ft | 0 kts | 22° |
| 2026-05-08 14:49 | 52.26100 | 104.41235 | 1664 ft | 7 kts | 23° |
| 2026-05-08 14:50 | 52.26213 | 104.41290 | 1663 ft | 18 kts | 330° |
| 2026-05-08 14:50 | 52.26268 | 104.41125 | 1660 ft | 17 kts | 293° |
| 2026-05-08 14:50 | 52.26303 | 104.40999 | 1658 ft | 6 kts | 292° |
| 2026-05-08 14:50 | 52.26326 | 104.40913 | 1657 ft | 17 kts | 295° |
| 2026-05-08 14:51 | 52.26495 | 104.40294 | 1645 ft | 100 kts | 293° |
| 2026-05-08 14:51 | 52.26868 | 104.38883 | 1624 ft | 169 kts | 293° |
| 2026-05-08 14:51 | 52.27358 | 104.37050 | 2009 ft | 180 kts | 293° |
| 2026-05-08 14:51 | 52.27856 | 104.35158 | 2669 ft | 186 kts | 293° |
| 2026-05-08 14:52 | 52.28595 | 104.33408 | 3298 ft | 198 kts | 322° |
| 2026-05-08 14:52 | 52.31307 | 104.31868 | 4336 ft | 221 kts | 342° |
| 2026-05-08 14:52 | 52.32791 | 104.31051 | 4891 ft | 231 kts | 339° |
| 2026-05-08 14:53 | 52.34288 | 104.30122 | 5590 ft | 234 kts | 339° |
| 2026-05-08 14:53 | 52.35803 | 104.29156 | 6340 ft | 234 kts | 339° |
| 2026-05-08 14:53 | 52.37295 | 104.28207 | 7049 ft | 236 kts | 339° |
| 2026-05-08 14:53 | 52.38817 | 104.27245 | 7797 ft | 236 kts | 339° |
| 2026-05-08 14:54 | 52.40339 | 104.26283 | 8545 ft | 235 kts | 339° |
| 2026-05-08 14:54 | 52.41857 | 104.25326 | 9239 ft | 237 kts | 339° |
| 2026-05-08 14:54 | 52.43382 | 104.24366 | 9924 ft | 237 kts | 339° |
| 2026-05-08 14:54 | 52.44924 | 104.23395 | 10583 ft | 240 kts | 339° |
| 2026-05-08 14:55 | 52.46483 | 104.22414 | 11172 ft | 243 kts | 339° |
| 2026-05-08 14:55 | 52.48039 | 104.21433 | 11766 ft | 245 kts | 339° |
| 2026-05-08 14:55 | 52.49640 | 104.20422 | 12333 ft | 249 kts | 339° |
| 2026-05-08 14:55 | 52.51259 | 104.19395 | 12909 ft | 251 kts | 339° |
| 2026-05-08 14:56 | 52.52897 | 104.18356 | 13454 ft | 255 kts | 339° |
| 2026-05-08 14:56 | 52.54554 | 104.17304 | 13992 ft | 259 kts | 339° |
| 2026-05-08 14:56 | 52.56230 | 104.16241 | 14556 ft | 261 kts | 339° |
| 2026-05-08 14:56 | 52.57927 | 104.15163 | 15109 ft | 263 kts | 339° |
| 2026-05-08 14:57 | 52.59613 | 104.14092 | 15640 ft | 265 kts | 339° |
| 2026-05-08 14:57 | 52.61344 | 104.12991 | 16157 ft | 267 kts | 339° |
| 2026-05-08 14:57 | 52.63062 | 104.11898 | 16654 ft | 270 kts | 339° |
| 2026-05-08 14:57 | 52.64830 | 104.10771 | 17161 ft | 272 kts | 339° |
| 2026-05-08 14:58 | 52.66586 | 104.09651 | 17659 ft | 274 kts | 339° |
| 2026-05-08 14:58 | 52.68350 | 104.08524 | 18121 ft | 276 kts | 339° |
| 2026-05-08 14:58 | 52.70146 | 104.07375 | 18599 ft | 278 kts | 339° |
| 2026-05-08 14:58 | 52.71957 | 104.06216 | 19056 ft | 280 kts | 339° |
| 2026-05-08 14:59 | 52.73757 | 104.05065 | 19496 ft | 283 kts | 339° |
| 2026-05-08 14:59 | 52.77437 | 104.02717 | 20397 ft | 286 kts | 339° |
| 2026-05-08 14:59 | 52.79302 | 104.01518 | 20795 ft | 289 kts | 339° |
| 2026-05-08 15:00 | 52.81153 | 104.00327 | 21189 ft | 291 kts | 339° |
| 2026-05-08 15:00 | 52.83036 | 103.99115 | 21613 ft | 292 kts | 339° |
| 2026-05-08 15:00 | 52.84932 | 103.97894 | 22003 ft | 294 kts | 339° |
| 2026-05-08 15:00 | 52.86844 | 103.96663 | 22389 ft | 296 kts | 339° |
| 2026-05-08 15:01 | 52.88747 | 103.95437 | 22755 ft | 298 kts | 339° |
| 2026-05-08 15:01 | 52.90678 | 103.94191 | 23148 ft | 299 kts | 339° |
| 2026-05-08 15:01 | 52.92629 | 103.92931 | 23464 ft | 304 kts | 339° |
| 2026-05-08 15:01 | 52.94617 | 103.91644 | 23808 ft | 309 kts | 339° |
| 2026-05-08 15:02 | 52.96634 | 103.90336 | 23929 ft | 322 kts | 339° |
| 2026-05-08 15:02 | 52.98753 | 103.88962 | 24053 ft | 333 kts | 339° |
| 2026-05-08 15:02 | 53.00954 | 103.87534 | 24130 ft | 346 kts | 339° |
| 2026-05-08 15:02 | 53.03231 | 103.86057 | 24238 ft | 358 kts | 339° |
| 2026-05-08 15:03 | 53.05576 | 103.84533 | 24354 ft | 369 kts | 339° |
| 2026-05-08 15:03 | 53.07977 | 103.82970 | 24438 ft | 381 kts | 339° |
| 2026-05-08 15:03 | 53.10461 | 103.81354 | 24810 ft | 385 kts | 339° |
| 2026-05-08 15:03 | 53.12962 | 103.79722 | 25214 ft | 389 kts | 339° |
| 2026-05-08 15:04 | 53.15474 | 103.78072 | 25656 ft | 391 kts | 338° |
| 2026-05-08 15:04 | 53.17971 | 103.76289 | 26078 ft | 394 kts | 336° |
| 2026-05-08 15:04 | 53.20461 | 103.74367 | 26543 ft | 395 kts | 335° |
| 2026-05-08 15:04 | 53.22907 | 103.72417 | 26934 ft | 398 kts | 335° |
| 2026-05-08 15:05 | 53.25408 | 103.70408 | 27316 ft | 400 kts | 335° |
| 2026-05-08 15:05 | 53.27929 | 103.68385 | 27738 ft | 402 kts | 335° |
| 2026-05-08 15:05 | 53.30424 | 103.66393 | 28101 ft | 404 kts | 335° |
| 2026-05-08 15:05 | 53.32956 | 103.64381 | 28501 ft | 406 kts | 335° |
| 2026-05-08 15:06 | 53.35486 | 103.62378 | 28809 ft | 409 kts | 335° |
| 2026-05-08 15:06 | 53.38052 | 103.60349 | 29173 ft | 412 kts | 335° |
| 2026-05-08 15:06 | 53.40646 | 103.58297 | 29557 ft | 413 kts | 335° |
| 2026-05-08 15:06 | 53.43213 | 103.56267 | 29913 ft | 415 kts | 335° |
| 2026-05-08 15:07 | 53.45820 | 103.54176 | 30318 ft | 415 kts | 334° |
| 2026-05-08 15:07 | 53.48271 | 103.51817 | 30885 ft | 411 kts | 328° |
| 2026-05-08 15:07 | 53.50514 | 103.49061 | 31283 ft | 411 kts | 322° |
| 2026-05-08 15:07 | 53.52607 | 103.45800 | 31675 ft | 412 kts | 315° |
| 2026-05-08 15:08 | 53.54440 | 103.42186 | 32033 ft | 413 kts | 309° |
| 2026-05-08 15:08 | 53.55519 | 103.39579 | 32288 ft | 413 kts | 305° |
| 2026-05-08 15:08 | 53.57352 | 103.33974 | 32812 ft | 413 kts | 298° |
| 2026-05-08 15:08 | 53.58579 | 103.29652 | 33111 ft | 414 kts | 297° |
| 2026-05-08 15:09 | 53.59807 | 103.25289 | 33445 ft | 413 kts | 298° |
| 2026-05-08 15:09 | 53.61070 | 103.20953 | 33748 ft | 413 kts | 299° |
| 2026-05-08 15:09 | 53.62372 | 103.16665 | 33964 ft | 414 kts | 300° |
| 2026-05-08 15:09 | 53.63709 | 103.12414 | 33982 ft | 414 kts | 301° |
| 2026-05-08 15:10 | 53.66446 | 103.03986 | 33973 ft | 408 kts | 301° |
| 2026-05-08 15:10 | 53.69188 | 102.95696 | 33969 ft | 409 kts | 302° |
| 2026-05-08 15:11 | 53.71941 | 102.87389 | 33963 ft | 410 kts | 302° |
| 2026-05-08 15:11 | 53.74696 | 102.79057 | 33972 ft | 408 kts | 302° |
| 2026-05-08 15:12 | 53.77452 | 102.70688 | 33972 ft | 408 kts | 301° |
| 2026-05-08 15:12 | 53.80190 | 102.62348 | 33970 ft | 408 kts | 301° |
| 2026-05-08 15:13 | 53.82906 | 102.54040 | 33973 ft | 407 kts | 302° |
| 2026-05-08 15:13 | 53.85620 | 102.45715 | 33963 ft | 405 kts | 302° |
| 2026-05-08 15:14 | 53.88310 | 102.37432 | 33965 ft | 407 kts | 301° |
| 2026-05-08 15:14 | 53.91022 | 102.29054 | 33971 ft | 408 kts | 301° |
| 2026-05-08 15:15 | 53.93722 | 102.20685 | 33976 ft | 406 kts | 301° |
| 2026-05-08 15:15 | 53.96416 | 102.12299 | 33962 ft | 407 kts | 301° |
| 2026-05-08 15:16 | 53.99105 | 102.03891 | 33981 ft | 406 kts | 301° |
| 2026-05-08 15:16 | 54.01775 | 101.95519 | 33966 ft | 405 kts | 301° |
| 2026-05-08 15:17 | 54.04455 | 101.87118 | 33976 ft | 405 kts | 301° |
| 2026-05-08 15:17 | 54.07128 | 101.78738 | 33969 ft | 404 kts | 301° |
| 2026-05-08 15:18 | 54.09784 | 101.70379 | 33947 ft | 406 kts | 301° |
| 2026-05-08 15:18 | 54.12455 | 101.61938 | 33962 ft | 406 kts | 301° |
| 2026-05-08 15:19 | 54.15112 | 101.53509 | 33956 ft | 404 kts | 301° |
| 2026-05-08 15:19 | 54.17760 | 101.45077 | 33946 ft | 404 kts | 301° |
| 2026-05-08 15:20 | 54.20393 | 101.36668 | 33947 ft | 405 kts | 301° |
| 2026-05-08 15:20 | 54.23025 | 101.28233 | 33936 ft | 404 kts | 300° |
| 2026-05-08 15:21 | 54.25651 | 101.19784 | 33940 ft | 404 kts | 300° |
| 2026-05-08 15:21 | 54.28276 | 101.11306 | 33937 ft | 404 kts | 300° |
| 2026-05-08 15:22 | 54.30882 | 101.02859 | 33938 ft | 405 kts | 300° |
| 2026-05-08 15:22 | 54.33493 | 100.94369 | 33933 ft | 404 kts | 300° |
| 2026-05-08 15:23 | 54.36101 | 100.85864 | 33941 ft | 405 kts | 300° |
| 2026-05-08 15:23 | 54.38674 | 100.77437 | 33937 ft | 404 kts | 300° |
| 2026-05-08 15:24 | 54.41272 | 100.68903 | 33942 ft | 404 kts | 300° |
| 2026-05-08 15:24 | 54.43852 | 100.60395 | 33942 ft | 404 kts | 300° |
| 2026-05-08 15:25 | 54.46423 | 100.51889 | 33947 ft | 403 kts | 300° |
| 2026-05-08 15:25 | 54.48983 | 100.43385 | 33950 ft | 403 kts | 300° |
| 2026-05-08 15:26 | 54.51536 | 100.34868 | 33949 ft | 403 kts | 299° |
| 2026-05-08 15:26 | 54.54082 | 100.26347 | 33936 ft | 403 kts | 299° |
| 2026-05-08 15:27 | 54.56625 | 100.17806 | 33942 ft | 403 kts | 298° |
| 2026-05-08 15:27 | 54.59159 | 100.09268 | 33948 ft | 403 kts | 298° |
| 2026-05-08 15:28 | 54.61687 | 100.00719 | 33943 ft | 402 kts | 298° |
| 2026-05-08 15:28 | 54.64217 | 99.92133 | 33949 ft | 403 kts | 298° |
| 2026-05-08 15:29 | 54.66729 | 99.83573 | 33955 ft | 402 kts | 298° |
| 2026-05-08 15:29 | 54.69231 | 99.75014 | 33951 ft | 402 kts | 298° |
| 2026-05-08 15:30 | 54.71753 | 99.66357 | 33952 ft | 402 kts | 298° |
| 2026-05-08 15:30 | 54.74228 | 99.57837 | 33948 ft | 402 kts | 298° |
| 2026-05-08 15:31 | 54.76726 | 99.49204 | 33949 ft | 402 kts | 298° |
| 2026-05-08 15:31 | 54.79197 | 99.40631 | 33949 ft | 401 kts | 298° |
| 2026-05-08 15:32 | 54.81671 | 99.32018 | 33950 ft | 401 kts | 297° |
| 2026-05-08 15:32 | 54.84146 | 99.23369 | 33953 ft | 401 kts | 297° |
| 2026-05-08 15:33 | 54.86604 | 99.14748 | 33955 ft | 402 kts | 297° |
| 2026-05-08 15:33 | 54.89049 | 99.06132 | 33949 ft | 402 kts | 296° |
| 2026-05-08 15:34 | 54.91175 | 98.97135 | 33955 ft | 403 kts | 292° |
| 2026-05-08 15:34 | 54.93058 | 98.88068 | 33958 ft | 404 kts | 291° |
| 2026-05-08 15:35 | 54.94944 | 98.78957 | 33959 ft | 402 kts | 291° |
| 2026-05-08 15:35 | 54.96856 | 98.69849 | 33949 ft | 403 kts | 292° |
| 2026-05-08 15:36 | 54.98461 | 98.62257 | 33964 ft | 402 kts | 292° |
| 2026-05-08 15:36 | 55.00687 | 98.51726 | 33982 ft | 400 kts | 292° |
| 2026-05-08 15:37 | 55.02598 | 98.42653 | 33993 ft | 401 kts | 292° |
| 2026-05-08 15:37 | 55.04494 | 98.33612 | 33972 ft | 399 kts | 291° |
| 2026-05-08 15:38 | 55.06392 | 98.24523 | 33988 ft | 402 kts | 291° |
| 2026-05-08 15:38 | 55.08298 | 98.15361 | 33953 ft | 402 kts | 291° |
| 2026-05-08 15:39 | 55.10172 | 98.06306 | 33962 ft | 401 kts | 291° |
| 2026-05-08 15:39 | 55.12040 | 97.97233 | 33976 ft | 400 kts | 291° |
| 2026-05-08 15:40 | 55.13904 | 97.88143 | 33964 ft | 400 kts | 291° |
| 2026-05-08 15:40 | 55.15771 | 97.78989 | 33966 ft | 401 kts | 290° |
| 2026-05-08 15:41 | 55.17610 | 97.69930 | 33970 ft | 398 kts | 291° |
| 2026-05-08 15:41 | 55.19438 | 97.60899 | 33968 ft | 399 kts | 291° |
| 2026-05-08 15:42 | 55.21278 | 97.51769 | 33960 ft | 399 kts | 291° |
| 2026-05-08 15:42 | 55.23099 | 97.42681 | 33956 ft | 398 kts | 291° |
| 2026-05-08 15:43 | 55.24911 | 97.33600 | 33953 ft | 399 kts | 290° |
| 2026-05-08 15:43 | 55.26713 | 97.24555 | 33956 ft | 398 kts | 290° |
| 2026-05-08 15:44 | 55.28547 | 97.15474 | 33952 ft | 397 kts | 290° |
| 2026-05-08 15:44 | 55.30392 | 97.06335 | 33952 ft | 397 kts | 290° |
| 2026-05-08 15:45 | 55.32216 | 96.97248 | 33953 ft | 397 kts | 290° |
| 2026-05-08 15:45 | 55.34030 | 96.88169 | 33952 ft | 396 kts | 290° |
| 2026-05-08 15:46 | 55.35845 | 96.79045 | 33957 ft | 396 kts | 290° |
| 2026-05-08 15:46 | 55.37648 | 96.69927 | 33939 ft | 395 kts | 290° |
| 2026-05-08 15:47 | 55.39436 | 96.60838 | 33937 ft | 397 kts | 290° |
| 2026-05-08 15:47 | 55.41224 | 96.51708 | 33933 ft | 396 kts | 290° |
| 2026-05-08 15:48 | 55.43876 | 96.38077 | 33923 ft | 394 kts | 290° |
| 2026-05-08 15:49 | 55.45644 | 96.28939 | 33937 ft | 395 kts | 289° |
| 2026-05-08 15:49 | 55.47393 | 96.19859 | 33926 ft | 394 kts | 289° |
| 2026-05-08 15:50 | 55.49144 | 96.10727 | 33926 ft | 394 kts | 289° |
| 2026-05-08 15:50 | 55.50887 | 96.01587 | 33926 ft | 394 kts | 289° |
| 2026-05-08 15:51 | 55.52618 | 95.92472 | 33924 ft | 394 kts | 289° |
| 2026-05-08 15:51 | 55.54335 | 95.83392 | 33925 ft | 393 kts | 289° |
| 2026-05-08 15:52 | 55.56063 | 95.74216 | 33929 ft | 393 kts | 289° |
| 2026-05-08 15:52 | 55.57774 | 95.65093 | 33933 ft | 392 kts | 289° |
| 2026-05-08 15:52 | 55.58619 | 95.60569 | 33818 ft | 392 kts | 289° |
| 2026-05-08 15:53 | 55.59464 | 95.56031 | 33170 ft | 388 kts | 289° |
| 2026-05-08 15:53 | 55.60296 | 95.51556 | 32665 ft | 382 kts | 289° |
| 2026-05-08 15:53 | 55.61103 | 95.47189 | 32190 ft | 373 kts | 289° |
| 2026-05-08 15:53 | 55.61901 | 95.42870 | 31723 ft | 364 kts | 289° |
| 2026-05-08 15:54 | 55.62671 | 95.38683 | 31308 ft | 356 kts | 289° |
| 2026-05-08 15:54 | 55.63425 | 95.34580 | 30847 ft | 349 kts | 288° |
| 2026-05-08 15:54 | 55.64164 | 95.30557 | 30387 ft | 341 kts | 288° |
| 2026-05-08 15:54 | 55.64877 | 95.26662 | 30015 ft | 334 kts | 288° |
| 2026-05-08 15:55 | 55.65594 | 95.22746 | 29542 ft | 331 kts | 288° |
| 2026-05-08 15:55 | 55.66985 | 95.15117 | 28723 ft | 324 kts | 288° |
| 2026-05-08 15:55 | 55.67664 | 95.11380 | 28339 ft | 321 kts | 288° |
| 2026-05-08 15:56 | 55.68338 | 95.07661 | 27917 ft | 318 kts | 288° |
| 2026-05-08 15:56 | 55.69013 | 95.03941 | 27495 ft | 317 kts | 288° |
| 2026-05-08 15:56 | 55.69691 | 95.00187 | 27128 ft | 332 kts | 288° |
| 2026-05-08 15:56 | 55.70405 | 94.96233 | 26659 ft | 339 kts | 288° |
| 2026-05-08 15:57 | 55.71115 | 94.92284 | 26221 ft | 335 kts | 288° |
| 2026-05-08 15:57 | 55.71816 | 94.88384 | 25795 ft | 331 kts | 288° |
| 2026-05-08 15:57 | 55.72500 | 94.84562 | 25394 ft | 328 kts | 288° |
| 2026-05-08 15:57 | 55.73185 | 94.80736 | 24994 ft | 325 kts | 288° |
| 2026-05-08 15:58 | 55.73826 | 94.77148 | 24580 ft | 322 kts | 288° |
| 2026-05-08 15:58 | 55.74492 | 94.73403 | 24178 ft | 319 kts | 288° |
| 2026-05-08 15:58 | 55.75145 | 94.69723 | 23786 ft | 315 kts | 288° |
| 2026-05-08 15:58 | 55.75802 | 94.66009 | 23367 ft | 312 kts | 288° |
| 2026-05-08 15:59 | 55.76439 | 94.62408 | 22993 ft | 308 kts | 288° |
| 2026-05-08 15:59 | 55.77078 | 94.58790 | 22582 ft | 306 kts | 288° |
| 2026-05-08 15:59 | 55.77708 | 94.55213 | 22199 ft | 302 kts | 288° |
| 2026-05-08 15:59 | 55.78324 | 94.51714 | 21815 ft | 299 kts | 288° |
| 2026-05-08 16:00 | 55.78941 | 94.48203 | 21433 ft | 296 kts | 288° |
| 2026-05-08 16:00 | 55.79549 | 94.44729 | 21052 ft | 293 kts | 288° |
| 2026-05-08 16:00 | 55.80148 | 94.41300 | 20681 ft | 290 kts | 288° |
| 2026-05-08 16:00 | 55.80736 | 94.37931 | 20317 ft | 292 kts | 288° |
| 2026-05-08 16:01 | 55.81350 | 94.34409 | 19933 ft | 306 kts | 287° |
| 2026-05-08 16:01 | 55.81983 | 94.30778 | 19530 ft | 308 kts | 287° |
| 2026-05-08 16:01 | 55.82623 | 94.27209 | 19148 ft | 305 kts | 288° |
| 2026-05-08 16:01 | 55.83276 | 94.23644 | 18759 ft | 302 kts | 288° |
| 2026-05-08 16:02 | 55.83925 | 94.20117 | 18372 ft | 299 kts | 288° |
| 2026-05-08 16:02 | 55.84523 | 94.16863 | 18019 ft | 296 kts | 288° |
| 2026-05-08 16:02 | 55.85151 | 94.13425 | 17942 ft | 292 kts | 288° |
| 2026-05-08 16:02 | 55.85786 | 94.09933 | 17939 ft | 300 kts | 288° |
| 2026-05-08 16:03 | 55.86431 | 94.06368 | 17937 ft | 302 kts | 288° |
| 2026-05-08 16:03 | 55.87069 | 94.02846 | 17932 ft | 299 kts | 288° |
| 2026-05-08 16:03 | 55.87702 | 93.99335 | 17938 ft | 299 kts | 288° |
| 2026-05-08 16:03 | 55.88335 | 93.95815 | 17936 ft | 300 kts | 288° |
| 2026-05-08 16:04 | 55.88966 | 93.92303 | 17937 ft | 299 kts | 288° |
| 2026-05-08 16:04 | 55.89600 | 93.88772 | 17935 ft | 299 kts | 288° |
| 2026-05-08 16:04 | 55.90231 | 93.85243 | 17942 ft | 301 kts | 288° |
| 2026-05-08 16:04 | 55.90870 | 93.81702 | 17936 ft | 300 kts | 289° |
| 2026-05-08 16:05 | 55.91544 | 93.78258 | 17929 ft | 298 kts | 290° |
| 2026-05-08 16:05 | 55.92252 | 93.74838 | 17708 ft | 293 kts | 290° |
| 2026-05-08 16:05 | 55.92962 | 93.71443 | 17198 ft | 295 kts | 290° |
| 2026-05-08 16:05 | 55.93671 | 93.68030 | 16809 ft | 292 kts | 290° |
| 2026-05-08 16:06 | 55.94368 | 93.64640 | 16380 ft | 290 kts | 290° |
| 2026-05-08 16:06 | 55.95053 | 93.61281 | 15952 ft | 289 kts | 290° |
| 2026-05-08 16:06 | 55.95717 | 93.58012 | 15551 ft | 280 kts | 290° |
| 2026-05-08 16:06 | 55.96366 | 93.54806 | 15164 ft | 276 kts | 290° |
| 2026-05-08 16:07 | 55.97025 | 93.51545 | 14621 ft | 278 kts | 289° |
| 2026-05-08 16:07 | 55.97663 | 93.48383 | 14257 ft | 274 kts | 289° |
| 2026-05-08 16:07 | 55.98307 | 93.45184 | 13764 ft | 274 kts | 289° |
| 2026-05-08 16:07 | 55.98943 | 93.42025 | 13377 ft | 271 kts | 289° |
| 2026-05-08 16:08 | 55.99575 | 93.38874 | 12943 ft | 270 kts | 289° |
| 2026-05-08 16:08 | 56.00206 | 93.35714 | 12490 ft | 269 kts | 289° |
| 2026-05-08 16:08 | 56.00829 | 93.32600 | 12111 ft | 266 kts | 289° |
| 2026-05-08 16:08 | 56.01443 | 93.29515 | 11765 ft | 262 kts | 289° |
| 2026-05-08 16:09 | 56.02035 | 93.26472 | 11348 ft | 262 kts | 287° |
| 2026-05-08 16:09 | 56.02366 | 93.24401 | 11090 ft | 260 kts | 284° |
| 2026-05-08 16:09 | 56.02928 | 93.20203 | 10491 ft | 258 kts | 283° |
| 2026-05-08 16:09 | 56.03314 | 93.17112 | 10273 ft | 257 kts | 283° |
| 2026-05-08 16:10 | 56.03708 | 93.14021 | 10120 ft | 255 kts | 283° |
| 2026-05-08 16:10 | 56.04108 | 93.10946 | 9883 ft | 253 kts | 283° |
| 2026-05-08 16:10 | 56.04510 | 93.07929 | 9628 ft | 252 kts | 283° |
| 2026-05-08 16:10 | 56.04918 | 93.04869 | 9317 ft | 253 kts | 283° |
| 2026-05-08 16:11 | 56.05313 | 93.01830 | 9017 ft | 254 kts | 283° |
| 2026-05-08 16:11 | 56.05711 | 92.98760 | 8916 ft | 252 kts | 283° |
| 2026-05-08 16:11 | 56.06142 | 92.95673 | 8912 ft | 257 kts | 287° |
| 2026-05-08 16:11 | 56.06755 | 92.92721 | 8939 ft | 255 kts | 292° |
| 2026-05-08 16:12 | 56.07467 | 92.89842 | 8779 ft | 248 kts | 294° |
| 2026-05-08 16:12 | 56.08168 | 92.87087 | 8595 ft | 240 kts | 294° |
| 2026-05-08 16:12 | 56.08835 | 92.84394 | 8202 ft | 238 kts | 293° |
| 2026-05-08 16:12 | 56.09473 | 92.81677 | 7749 ft | 237 kts | 292° |
| 2026-05-08 16:13 | 56.10206 | 92.79075 | 7376 ft | 236 kts | 307° |
| 2026-05-08 16:13 | 56.11468 | 92.77269 | 6960 ft | 239 kts | 335° |
| 2026-05-08 16:13 | 56.13103 | 92.76843 | 6600 ft | 243 kts | 5° |
| 2026-05-08 16:13 | 56.14679 | 92.77949 | 6173 ft | 251 kts | 34° |
| 2026-05-08 16:14 | 56.15796 | 92.80360 | 5726 ft | 259 kts | 63° |
| 2026-05-08 16:14 | 56.16146 | 92.83500 | 5347 ft | 260 kts | 94° |
| 2026-05-08 16:14 | 56.15629 | 92.86540 | 5076 ft | 255 kts | 123° |
| 2026-05-08 16:14 | 56.14403 | 92.88723 | 4686 ft | 250 kts | 153° |
| 2026-05-08 16:15 | 56.12770 | 92.89578 | 4181 ft | 248 kts | 182° |
| 2026-05-08 16:15 | 56.11172 | 92.88878 | 3893 ft | 233 kts | 213° |
| 2026-05-08 16:15 | 56.10066 | 92.86874 | 3725 ft | 225 kts | 245° |
| 2026-05-08 16:15 | 56.09732 | 92.84216 | 3487 ft | 222 kts | 276° |
| 2026-05-08 16:16 | 56.10141 | 92.81574 | 3293 ft | 216 kts | 291° |
| 2026-05-08 16:16 | 56.10461 | 92.79064 | 3266 ft | 203 kts | 280° |
| 2026-05-08 16:16 | 56.10731 | 92.76694 | 3278 ft | 183 kts | 290° |
| 2026-05-08 16:16 | 56.11186 | 92.74633 | 3270 ft | 176 kts | 296° |
| 2026-05-08 16:17 | 56.11682 | 92.72638 | 3271 ft | 176 kts | 295° |
| 2026-05-08 16:17 | 56.12007 | 92.71308 | 3220 ft | 179 kts | 295° |
| 2026-05-08 16:17 | 56.12664 | 92.68586 | 2920 ft | 177 kts | 295° |
| 2026-05-08 16:17 | 56.13139 | 92.66623 | 2754 ft | 166 kts | 295° |
| 2026-05-08 16:18 | 56.13592 | 92.64741 | 2427 ft | 163 kts | 295° |
| 2026-05-08 16:18 | 56.14026 | 92.62942 | 2235 ft | 150 kts | 295° |
| 2026-05-08 16:18 | 56.14422 | 92.61294 | 2051 ft | 143 kts | 295° |
| 2026-05-08 16:18 | 56.14814 | 92.59654 | 1867 ft | 142 kts | 295° |
| 2026-05-08 16:19 | 56.15209 | 92.58035 | 1684 ft | 141 kts | 295° |
| 2026-05-08 16:19 | 56.15614 | 92.56428 | 1449 ft | 141 kts | 294° |
| 2026-05-08 16:19 | 56.15989 | 92.54818 | 1311 ft | 140 kts | 292° |
| 2026-05-08 16:19 | 56.16364 | 92.53190 | 1144 ft | 144 kts | 294° |
| 2026-05-08 16:20 | 56.16756 | 92.51540 | 941 ft | 141 kts | 294° |
| 2026-05-08 16:20 | 56.17100 | 92.50124 | 922 ft | 95 kts | 292° |
| 2026-05-08 16:20 | 56.17288 | 92.49351 | 912 ft | 51 kts | 293° |
| 2026-05-08 16:20 | 56.17429 | 92.48823 | 906 ft | 49 kts | 307° |
| 2026-05-08 16:21 | 56.17621 | 92.48536 | 905 ft | 19 kts | 323° |
| 2026-05-08 16:21 | 56.17641 | 92.48510 | 905 ft | 0 kts | 323° |
| 2026-05-08 16:21 | 56.17641 | 92.48508 | 905 ft | 1 kts | 323° |
| 2026-05-08 16:22 | 56.17714 | 92.48415 | 907 ft | 24 kts | 332° |
| 2026-05-08 16:22 | 56.17821 | 92.48440 | 908 ft | 23 kts | 26° |
| 2026-05-08 16:22 | 56.17927 | 92.48520 | 909 ft | 1 kts | 22° |
| 2026-05-08 16:22 | 56.17933 | 92.48525 | 909 ft | 2 kts | 22° |
| 2026-05-08 16:23 | 56.17938 | 92.48528 | 909 ft | 0 kts | 22° |